Time;durP1;ratioP1;P1;durP2;ratioP2;P2;SDS_P1;SDS_P2;PMS_P1;PMS_P2;Temp;Humidity;BMP_temperature;BMP_pressure;BME280_temperature;BME280_humidity;BME280_pressure;Samples;Min_cycle;Max_cycle;Signal;HPM_P1;HPM_P2
2023/04/05 00:00:06;;;;;;;1.10;1.10;;;;;0.50;96424.00;;;;5016710;28;20197;-58
2023/04/05 00:02:35;;;;;;;1.97;1.77;;;;;0.40;96426.00;;;;5015451;28;20184;-58
2023/04/05 00:05:05;;;;;;;1.87;1.70;;;;;0.40;96409.00;;;;5016616;28;20203;-58
2023/04/05 00:07:34;;;;;;;1.30;1.30;;;;;0.30;96410.00;;;;5016745;28;20224;-59
2023/04/05 00:10:01;;;;;;;1.43;1.33;;;;;0.30;96408.00;;;;5017302;28;20292;-59
2023/04/05 00:12:28;;;;;;;1.33;1.23;;;;;0.30;96410.00;;;;5016406;28;20237;-59
2023/04/05 00:14:56;;;;;;;1.20;1.20;;;;;0.30;96403.00;;;;5016903;28;20203;-59
2023/04/05 00:17:23;;;;;;;1.40;1.40;;;;;0.30;96401.00;;;;5016354;28;20200;-59
2023/04/05 00:19:56;;;;;;;1.97;1.87;;;;;0.30;96397.00;;;;5016319;28;20563;-59
2023/04/05 00:22:25;;;;;;;1.73;1.63;;;;;0.30;96392.00;;;;5016553;28;20192;-58
2023/04/05 00:24:52;;;;;;;2.23;2.10;;;;;0.20;96402.00;;;;5016656;28;20196;-59
2023/04/05 00:27:20;;;;;;;1.30;1.30;;;;;0.10;96391.00;;;;5016359;28;20559;-58
2023/04/05 00:29:48;;;;;;;1.37;1.27;;;;;0.20;96395.00;;;;5016468;28;20580;-58
2023/04/05 00:32:15;;;;;;;1.83;1.60;;;;;0.00;96389.00;;;;5016580;28;20286;-58
2023/04/05 00:34:43;;;;;;;1.20;1.20;;;;;0.10;96393.00;;;;5016320;28;20203;-57
2023/04/05 00:37:11;;;;;;;1.00;1.00;;;;;0.00;96391.00;;;;5015863;28;20706;-57
2023/04/05 00:39:40;;;;;;;4.27;1.90;;;;;0.10;96388.00;;;;5016120;28;20199;-58
2023/04/05 00:42:07;;;;;;;1.83;1.70;;;;;0.00;96389.00;;;;5015834;28;20193;-58
2023/04/05 00:44:35;;;;;;;0.80;0.80;;;;;-0.10;96376.00;;;;5015827;28;20278;-58
2023/04/05 00:47:03;;;;;;;0.80;0.80;;;;;-0.20;96376.00;;;;5016025;28;20207;-58
2023/04/05 00:49:32;;;;;;;3.03;2.17;;;;;-0.30;96380.00;;;;5015942;28;20217;-58
2023/04/05 00:52:00;;;;;;;1.23;1.23;;;;;-0.30;96383.00;;;;5015685;28;20215;-59
2023/04/05 00:54:29;;;;;;;5.30;1.87;;;;;-0.20;96375.00;;;;5015701;28;20195;-59
2023/04/05 00:56:59;;;;;;;3.93;1.47;;;;;-0.10;96369.00;;;;5015847;28;20247;-59
2023/04/05 00:59:27;;;;;;;1.50;1.40;;;;;0.00;96388.00;;;;5014651;28;20311;-59
2023/04/05 01:02:00;;;;;;;1.80;1.70;;;;;-0.10;96367.00;;;;5015569;28;20198;-59
2023/04/05 01:04:30;;;;;;;3.00;2.40;;;;;-0.20;96363.00;;;;5014236;28;20199;-58
2023/04/05 01:07:09;;;;;;;1.90;1.80;;;;;-0.20;96354.00;;;;5015491;28;20188;-57
2023/04/05 01:09:45;;;;;;;3.50;2.00;;;;;-0.20;96358.00;;;;5015409;28;20199;-57
2023/04/05 01:12:18;;;;;;;1.23;1.23;;;;;-0.30;96370.00;;;;5015298;28;20662;-58
2023/04/05 01:14:50;;;;;;;2.27;1.77;;;;;-0.30;96357.00;;;;5015853;28;20297;-57
2023/04/05 01:17:21;;;;;;;1.90;1.50;;;;;-0.20;96353.00;;;;5015438;28;20185;-57
2023/04/05 01:19:52;;;;;;;1.50;1.40;;;;;-0.20;96353.00;;;;5013862;28;20294;-58
2023/04/05 01:22:59;;;;;;;1.53;1.53;;;;;-0.10;96351.00;;;;5015186;28;20189;-58
2023/04/05 01:25:49;;;;;;;1.00;1.00;;;;;-0.20;96357.00;;;;5015017;28;20199;-58
2023/04/05 01:28:40;;;;;;;1.40;1.30;;;;;-0.10;96344.00;;;;5014810;28;20226;-58
2023/04/05 01:31:15;;;;;;;1.63;1.27;;;;;0.10;96342.00;;;;5015092;28;20302;-58
2023/04/05 01:33:50;;;;;;;1.57;1.47;;;;;0.20;96332.00;;;;5015067;28;20196;-59
2023/04/05 01:36:25;;;;;;;1.03;1.03;;;;;0.00;96338.00;;;;5014941;28;20194;-58
2023/04/05 01:38:54;;;;;;;0.70;0.70;;;;;-0.30;96331.00;;;;5014860;28;20219;-59
2023/04/05 01:41:22;;;;;;;1.50;1.00;;;;;-0.30;96337.00;;;;5014764;28;20710;-58
2023/04/05 01:43:49;;;;;;;4.30;1.40;;;;;-0.40;96333.00;;;;5014691;28;20713;-58
2023/04/05 01:46:18;;;;;;;3.50;1.73;;;;;-0.30;96339.00;;;;5014674;28;20679;-59
2023/04/05 01:48:45;;;;;;;1.50;1.27;;;;;-0.40;96327.00;;;;5014875;28;20543;-59
2023/04/05 01:51:13;;;;;;;1.07;1.07;;;;;-0.40;96331.00;;;;5014673;28;20222;-58
2023/04/05 01:53:42;;;;;;;1.30;1.20;;;;;-0.30;96329.00;;;;5014580;28;20284;-60
2023/04/05 01:56:10;;;;;;;2.10;1.93;;;;;-0.30;96325.00;;;;5014468;28;20572;-57
2023/04/05 01:58:37;;;;;;;0.97;0.97;;;;;-0.40;96323.00;;;;5014372;28;20219;-57
2023/04/05 02:01:05;;;;;;;1.70;1.57;;;;;-0.30;96327.00;;;;5014960;28;20246;-58
2023/04/05 02:03:34;;;;;;;1.60;1.50;;;;;-0.30;96321.00;;;;5014429;28;20282;-58
2023/04/05 02:06:02;;;;;;;1.10;1.10;;;;;-0.50;96321.00;;;;5013018;28;20200;-58
2023/04/05 02:08:29;;;;;;;1.27;1.27;;;;;-0.50;96313.00;;;;5014183;28;20226;-58
2023/04/05 02:10:56;;;;;;;1.90;1.20;;;;;-0.40;96310.00;;;;5014082;28;20343;-58
2023/04/05 02:13:24;;;;;;;2.30;1.50;;;;;-0.60;96322.00;;;;5014235;28;20191;-58
2023/04/05 02:15:52;;;;;;;1.43;1.37;;;;;-0.60;96310.00;;;;5014405;28;20202;-58
2023/04/05 02:18:21;;;;;;;2.50;1.80;;;;;-0.50;96299.00;;;;5014115;28;20221;-58
2023/04/05 02:20:51;;;;;;;1.50;1.40;;;;;-0.60;96310.00;;;;5014325;28;20199;-59
2023/04/05 02:23:19;;;;;;;3.07;2.13;;;;;-0.60;96313.00;;;;5014252;28;20189;-59
2023/04/05 02:25:47;;;;;;;1.13;1.13;;;;;-0.50;96306.00;;;;5014559;28;20202;-58
2023/04/05 02:28:14;;;;;;;1.03;1.03;;;;;-0.70;96305.00;;;;5013836;28;20238;-59
2023/04/05 02:30:41;;;;;;;1.03;1.03;;;;;-0.60;96307.00;;;;5014175;28;20197;-58
2023/04/05 02:33:09;;;;;;;0.80;0.80;;;;;-0.60;96298.00;;;;5013834;28;20217;-58
2023/04/05 02:35:36;;;;;;;0.87;0.87;;;;;-0.70;96303.00;;;;5014050;28;20199;-59
2023/04/05 02:38:05;;;;;;;1.20;1.20;;;;;-0.70;96300.00;;;;5013935;28;20211;-58
2023/04/05 02:40:34;;;;;;;0.80;0.80;;;;;-0.60;96298.00;;;;5013734;28;20270;-58
2023/04/05 02:43:01;;;;;;;0.73;0.73;;;;;-0.60;96304.00;;;;5012487;28;20198;-58
2023/04/05 02:45:29;;;;;;;1.83;1.67;;;;;-0.60;96300.00;;;;5013926;28;20274;-58
2023/04/05 02:47:57;;;;;;;4.70;2.47;;;;;-0.70;96305.00;;;;5013575;28;20270;-59
2023/04/05 02:50:24;;;;;;;1.37;1.27;;;;;-0.70;96314.00;;;;5013826;28;20204;-58
2023/04/05 02:52:52;;;;;;;1.27;1.27;;;;;-0.80;96304.00;;;;5013466;28;20276;-58
2023/04/05 02:55:20;;;;;;;1.10;1.10;;;;;-0.80;96305.00;;;;5013552;28;20195;-58
2023/04/05 02:57:48;;;;;;;1.10;1.10;;;;;-0.70;96313.00;;;;5013476;28;20211;-58
2023/04/05 03:00:16;;;;;;;1.27;1.27;;;;;-0.70;96302.00;;;;5013448;28;20207;-58
2023/04/05 03:02:44;;;;;;;4.90;1.57;;;;;-0.90;96306.00;;;;5013431;28;20195;-59
2023/04/05 03:05:12;;;;;;;1.40;1.40;;;;;-0.80;96298.00;;;;5013523;28;20195;-59
2023/04/05 03:07:41;;;;;;;1.20;1.20;;;;;-1.00;96298.00;;;;5013241;28;20218;-58
2023/04/05 03:10:09;;;;;;;1.60;1.50;;;;;-0.90;96295.00;;;;5013343;28;20194;-58
2023/04/05 03:12:38;;;;;;;1.60;1.50;;;;;-0.90;96295.00;;;;5013204;28;20221;-60
2023/04/05 03:15:06;;;;;;;1.07;1.07;;;;;-1.00;96294.00;;;;5012094;28;20609;-58
2023/04/05 03:17:33;;;;;;;1.70;1.60;;;;;-1.00;96291.00;;;;5013410;28;20221;-58
2023/04/05 03:20:07;;;;;;;1.67;1.57;;;;;-1.00;96290.00;;;;5013414;28;20201;-58
2023/04/05 03:22:35;;;;;;;1.50;1.40;;;;;-1.00;96294.00;;;;5015157;28;20182;-58
2023/04/05 03:25:02;;;;;;;1.77;1.67;;;;;-1.10;96292.00;;;;5019746;28;20270;-59
2023/04/05 03:27:30;;;;;;;1.90;1.77;;;;;-1.00;96287.00;;;;5019970;28;20215;-58
2023/04/05 03:29:59;;;;;;;1.00;1.00;;;;;-1.10;96284.00;;;;5020194;28;20208;-58
2023/04/05 03:32:26;;;;;;;6.33;3.23;;;;;-1.10;96290.00;;;;5019854;28;20215;-58
2023/04/05 03:34:54;;;;;;;1.30;1.30;;;;;-1.20;96282.00;;;;5019652;28;20221;-58
2023/04/05 03:37:21;;;;;;;1.67;1.57;;;;;-1.30;96280.00;;;;5019480;28;20244;-59
2023/04/05 03:39:49;;;;;;;2.40;1.37;;;;;-1.20;96291.00;;;;5019573;28;20690;-59
2023/04/05 03:42:16;;;;;;;1.13;1.13;;;;;-1.40;96293.00;;;;5020574;28;20663;-58
2023/04/05 03:44:44;;;;;;;1.70;1.57;;;;;-1.40;96279.00;;;;5019793;28;20194;-58
2023/04/05 03:47:13;;;;;;;1.00;1.00;;;;;-1.40;96273.00;;;;5019511;28;20549;-58
2023/04/05 03:49:40;;;;;;;1.90;1.70;;;;;-1.40;96282.00;;;;5019520;28;20281;-58
2023/04/05 03:52:08;;;;;;;4.73;2.70;;;;;-1.40;96283.00;;;;5019651;28;20228;-59
2023/04/05 03:54:35;;;;;;;1.10;1.10;;;;;-1.40;96286.00;;;;5020026;28;20659;-58
2023/04/05 03:57:03;;;;;;;1.20;1.20;;;;;-1.50;96280.00;;;;5018186;28;20249;-59
2023/04/05 03:59:30;;;;;;;1.67;1.57;;;;;-1.40;96270.00;;;;5019399;28;20269;-59
2023/04/05 04:01:58;;;;;;;1.40;1.33;;;;;-1.40;96275.00;;;;5019444;28;20196;-59
2023/04/05 04:04:27;;;;;;;1.03;1.03;;;;;-1.40;96285.00;;;;5019341;28;20189;-59
2023/04/05 04:06:55;;;;;;;1.43;1.33;;;;;-1.40;96282.00;;;;5019418;28;20206;-59
2023/04/05 04:09:22;;;;;;;1.30;1.30;;;;;-1.50;96271.00;;;;5019292;28;20217;-59
2023/04/05 04:11:50;;;;;;;1.27;1.27;;;;;-1.50;96273.00;;;;5019279;28;20244;-59
2023/04/05 04:14:17;;;;;;;1.90;1.77;;;;;-1.50;96271.00;;;;5019256;28;20204;-59
2023/04/05 04:16:44;;;;;;;1.00;1.00;;;;;-1.50;96260.00;;;;5019310;28;20201;-59
2023/04/05 04:19:12;;;;;;;1.73;1.63;;;;;-1.60;96268.00;;;;5019476;28;20217;-59
2023/04/05 04:21:50;;;;;;;1.20;1.20;;;;;-1.70;96272.00;;;;5019255;28;20206;-59
2023/04/05 04:24:18;;;;;;;2.83;1.93;;;;;-1.60;96276.00;;;;5019251;28;20185;-59
2023/04/05 04:26:46;;;;;;;1.00;1.00;;;;;-1.70;96262.00;;;;5019499;28;20560;-58
2023/04/05 04:29:15;;;;;;;1.60;1.50;;;;;-1.70;96262.00;;;;5019272;28;20599;-58
2023/04/05 04:31:44;;;;;;;0.90;0.90;;;;;-1.70;96269.00;;;;5019130;28;20205;-58
2023/04/05 04:34:12;;;;;;;1.67;1.57;;;;;-1.70;96269.00;;;;5016903;28;20760;-58
2023/04/05 04:36:45;;;;;;;1.67;1.57;;;;;-1.80;96273.00;;;;5016842;28;20650;-58
2023/04/05 04:39:12;;;;;;;1.30;1.30;;;;;-1.90;96266.00;;;;5016906;28;20213;-59
2023/04/05 04:41:43;;;;;;;1.13;1.03;;;;;-1.80;96259.00;;;;5016233;28;20696;-59
2023/04/05 04:44:13;;;;;;;1.83;1.73;;;;;-1.80;96271.00;;;;5015269;28;20284;-59
2023/04/05 04:46:42;;;;;;;2.17;1.80;;;;;-1.80;96268.00;;;;5016239;28;20564;-59
2023/04/05 04:49:09;;;;;;;1.83;1.73;;;;;-1.80;96280.00;;;;5015595;28;20244;-58
2023/04/05 04:51:38;;;;;;;1.43;1.33;;;;;-1.80;96287.00;;;;5016313;28;20562;-58
2023/04/05 04:54:07;;;;;;;1.10;1.10;;;;;-1.80;96278.00;;;;5015693;28;20608;-58
2023/04/05 04:56:35;;;;;;;7.93;6.17;;;;;-1.80;96278.00;;;;5016326;28;20318;-60
2023/04/05 04:59:02;;;;;;;5.33;3.43;;;;;-2.00;96287.00;;;;5015835;28;20714;-59
2023/04/05 05:01:30;;;;;;;2.07;1.97;;;;;-1.90;96282.00;;;;5015702;28;20204;-59
2023/04/05 05:03:57;;;;;;;3.67;2.73;;;;;-1.90;96282.00;;;;5015951;28;20236;-58
2023/04/05 05:06:25;;;;;;;3.73;3.13;;;;;-2.00;96280.00;;;;5015415;28;20189;-59
2023/04/05 05:08:53;;;;;;;3.53;3.23;;;;;-2.10;96278.00;;;;5015803;28;20233;-59
2023/04/05 05:11:21;;;;;;;2.50;2.30;;;;;-2.00;96285.00;;;;5015941;28;20553;-59
2023/04/05 05:13:49;;;;;;;2.00;1.47;;;;;-2.00;96286.00;;;;5015101;28;20228;-58
2023/04/05 05:16:17;;;;;;;1.03;1.03;;;;;-1.90;96283.00;;;;5015828;28;20192;-57
2023/04/05 05:18:46;;;;;;;1.37;1.33;;;;;-1.80;96274.00;;;;5015019;28;20297;-59
2023/04/05 05:21:14;;;;;;;2.17;1.73;;;;;-1.80;96287.00;;;;5015730;28;20277;-59
2023/04/05 05:23:41;;;;;;;1.83;1.73;;;;;-1.80;96293.00;;;;5015542;28;20195;-58
2023/04/05 05:26:09;;;;;;;1.07;1.07;;;;;-1.80;96278.00;;;;5014339;28;20201;-59
2023/04/05 05:28:38;;;;;;;1.30;1.30;;;;;-1.70;96292.00;;;;5042726;22;20235;-63
2023/04/05 05:31:05;;;;;;;1.63;1.53;;;;;-1.60;96277.00;;;;5074515;28;20199;-63
2023/04/05 05:33:33;;;;;;;1.03;1.03;;;;;-1.60;96286.00;;;;5070680;28;20216;-61
2023/04/05 05:36:02;;;;;;;1.07;1.07;;;;;-1.60;96287.00;;;;5071501;28;20223;-67
2023/04/05 05:38:29;;;;;;;3.83;2.53;;;;;-1.50;96287.00;;;;5072324;28;20304;-66
2023/04/05 05:40:57;;;;;;;2.13;1.93;;;;;-1.60;96288.00;;;;5072333;28;20200;-68
2023/04/05 05:43:24;;;;;;;1.30;1.30;;;;;-1.60;96279.00;;;;5055607;28;20283;-66
2023/04/05 05:45:53;;;;;;;2.13;1.93;;;;;-1.50;96270.00;;;;5064742;28;20199;-65
2023/04/05 05:48:20;;;;;;;1.73;1.50;;;;;-1.40;96280.00;;;;5072164;28;20220;-65
2023/04/05 05:50:49;;;;;;;2.27;1.87;;;;;-1.40;96286.00;;;;5064528;28;20261;-64
2023/04/05 05:53:16;;;;;;;2.33;2.23;;;;;-1.20;96279.00;;;;5069805;28;20690;-61
2023/04/05 05:55:46;;;;;;;1.27;1.23;;;;;-1.20;96281.00;;;;5060733;28;20201;-62
2023/04/05 05:58:13;;;;;;;1.20;1.17;;;;;-1.20;96276.00;;;;5067630;28;20235;-61
2023/04/05 06:00:41;;;;;;;1.83;1.67;;;;;-1.00;96286.00;;;;5071979;28;20287;-62
2023/04/05 06:03:10;;;;;;;2.07;1.87;;;;;-0.90;96278.00;;;;5053128;28;20250;-62
2023/04/05 06:05:38;;;;;;;2.13;1.70;;;;;-0.90;96282.00;;;;5051173;28;20275;-62
2023/04/05 06:08:05;;;;;;;1.20;1.20;;;;;-0.90;96280.00;;;;5050807;28;20208;-63
2023/04/05 06:10:36;;;;;;;1.17;1.17;;;;;-0.80;96279.00;;;;5049859;28;20212;-62
2023/04/05 06:13:04;;;;;;;1.67;1.57;;;;;-0.70;96278.00;;;;5052020;28;20213;-62
2023/04/05 06:15:31;;;;;;;1.10;1.10;;;;;-0.60;96285.00;;;;5065779;28;20195;-61
2023/04/05 06:17:58;;;;;;;2.33;1.70;;;;;-0.60;96286.00;;;;5071591;28;20197;-61
2023/04/05 06:20:27;;;;;;;2.20;1.87;;;;;-0.40;96280.00;;;;5066134;28;20210;-62
2023/04/05 06:22:55;;;;;;;3.53;1.47;;;;;-0.50;96279.00;;;;5051614;28;20519;-61
2023/04/05 06:25:22;;;;;;;1.57;1.47;;;;;-0.40;96281.00;;;;5070878;28;20278;-62
2023/04/05 06:27:49;;;;;;;1.57;1.50;;;;;-0.20;96286.00;;;;5071450;28;20201;-62
2023/04/05 06:30:17;;;;;;;1.07;1.07;;;;;-0.30;96283.00;;;;5070611;28;20270;-63
2023/04/05 06:32:44;;;;;;;1.57;1.37;;;;;-0.50;96278.00;;;;5071672;28;20211;-62
2023/04/05 06:35:12;;;;;;;1.37;1.27;;;;;-0.50;96279.00;;;;5070949;28;20200;-62
2023/04/05 06:37:41;;;;;;;0.83;0.83;;;;;-0.40;96291.00;;;;5070219;28;20213;-62
2023/04/05 06:40:09;;;;;;;1.10;1.10;;;;;-0.40;96296.00;;;;5056970;28;20237;-61
2023/04/05 06:42:37;;;;;;;0.90;0.90;;;;;-0.40;96293.00;;;;5051163;28;20617;-61
2023/04/05 06:45:08;;;;;;;1.83;1.73;;;;;-0.50;96288.00;;;;5051071;28;20277;-61
2023/04/05 06:47:36;;;;;;;2.93;1.67;;;;;-0.30;96289.00;;;;5051222;28;20197;-61
2023/04/05 06:50:03;;;;;;;1.23;1.23;;;;;-0.10;96286.00;;;;5065071;28;20218;-62
2023/04/05 06:52:31;;;;;;;0.80;0.80;;;;;0.00;96294.00;;;;5071141;28;20744;-62
2023/04/05 06:55:00;;;;;;;1.53;1.43;;;;;0.00;96289.00;;;;5070627;28;20197;-62
2023/04/05 06:57:27;;;;;;;7.17;2.13;;;;;0.20;96296.00;;;;5070777;28;20204;-62
2023/04/05 06:59:55;;;;;;;1.20;1.10;;;;;0.30;96290.00;;;;5070507;28;20553;-63
2023/04/05 07:02:22;;;;;;;2.10;1.90;;;;;0.40;96289.00;;;;5070980;28;20277;-61
2023/04/05 07:04:50;;;;;;;1.67;1.57;;;;;0.10;96291.00;;;;5053051;28;20232;-62
2023/04/05 07:07:17;;;;;;;1.10;1.10;;;;;0.30;96286.00;;;;5051523;28;20248;-63
2023/04/05 07:09:45;;;;;;;1.40;1.30;;;;;0.40;96278.00;;;;5062245;28;20218;-61
2023/04/05 07:12:14;;;;;;;1.40;1.17;;;;;0.60;96289.00;;;;5051330;28;20203;-63
2023/04/05 07:14:41;;;;;;;1.23;1.13;;;;;0.60;96283.00;;;;5050383;28;20297;-61
2023/04/05 07:17:08;;;;;;;5.93;2.07;;;;;0.70;96288.00;;;;5051248;28;20203;-61
2023/04/05 07:19:36;;;;;;;1.03;1.03;;;;;0.80;96279.00;;;;5050475;28;20221;-61
2023/04/05 07:22:03;;;;;;;1.53;1.50;;;;;0.90;96283.00;;;;5050893;28;20195;-61
2023/04/05 07:24:30;;;;;;;1.03;1.00;;;;;0.90;96282.00;;;;5051471;28;20198;-62
2023/04/05 07:26:58;;;;;;;1.83;1.73;;;;;1.10;96248.00;;;;5071053;28;20198;-61
2023/04/05 07:29:27;;;;;;;1.17;1.13;;;;;1.10;96275.00;;;;5070224;28;20229;-62
2023/04/05 07:31:54;;;;;;;1.57;1.47;;;;;1.30;96279.00;;;;5071055;28;20677;-61
2023/04/05 07:34:21;;;;;;;1.50;1.20;;;;;1.60;96281.00;;;;5053703;28;20270;-62
2023/04/05 07:36:50;;;;;;;1.30;1.30;;;;;1.70;96282.00;;;;5050946;28;20199;-62
2023/04/05 07:39:18;;;;;;;7.37;1.73;;;;;1.90;96276.00;;;;5050463;28;20242;-62
2023/04/05 07:41:46;;;;;;;1.37;1.37;;;;;1.90;96271.00;;;;5050490;28;20253;-62
2023/04/05 07:44:13;;;;;;;1.93;1.80;;;;;2.10;96279.00;;;;5050370;28;20200;-62
2023/04/05 07:46:43;;;;;;;3.53;2.13;;;;;2.10;96273.00;;;;5050531;28;20204;-62
2023/04/05 07:49:11;;;;;;;2.23;2.03;;;;;2.20;96279.00;;;;5050519;28;20294;-62
2023/04/05 07:51:38;;;;;;;1.50;1.40;;;;;2.20;96275.00;;;;5050486;28;20200;-62
2023/04/05 07:54:06;;;;;;;0.90;0.90;;;;;2.30;96272.00;;;;5050134;28;20242;-62
2023/04/05 07:56:33;;;;;;;1.40;1.30;;;;;2.50;96287.00;;;;5050782;28;20207;-62
2023/04/05 07:59:00;;;;;;;1.73;1.63;;;;;2.60;96285.00;;;;5050575;28;20226;-62
2023/04/05 08:01:28;;;;;;;1.37;1.37;;;;;2.90;96290.00;;;;5050458;28;20741;-61
2023/04/05 08:03:57;;;;;;;2.20;1.20;;;;;3.00;96286.00;;;;5050077;28;20197;-62
2023/04/05 08:06:25;;;;;;;1.47;1.47;;;;;3.20;96282.00;;;;5050644;28;20199;-62
2023/04/05 08:08:53;;;;;;;1.70;1.60;;;;;3.30;96298.00;;;;5051197;28;20262;-61
2023/04/05 08:11:21;;;;;;;1.73;1.63;;;;;3.40;96278.00;;;;5054255;28;20559;-61
2023/04/05 08:13:49;;;;;;;1.50;1.40;;;;;3.80;96287.00;;;;5053940;28;20246;-60
2023/04/05 08:16:16;;;;;;;0.90;0.90;;;;;3.80;96284.00;;;;5053750;28;20744;-62
2023/04/05 08:18:44;;;;;;;1.43;1.33;;;;;3.80;96287.00;;;;5053424;28;20220;-61
2023/04/05 08:21:12;;;;;;;1.03;1.03;;;;;4.00;96290.00;;;;5054318;28;20681;-60
2023/04/05 08:23:40;;;;;;;1.13;1.13;;;;;4.20;96280.00;;;;5053929;28;20664;-61
2023/04/05 08:26:08;;;;;;;1.03;1.03;;;;;4.20;96282.00;;;;5054073;28;20209;-63
2023/04/05 08:28:35;;;;;;;1.10;1.10;;;;;4.30;96282.00;;;;5052966;28;20589;-63
2023/04/05 08:31:03;;;;;;;1.47;1.37;;;;;4.50;96283.00;;;;5054093;28;20554;-61
2023/04/05 08:33:30;;;;;;;0.83;0.83;;;;;4.40;96245.00;;;;5052818;28;20230;-61
2023/04/05 08:35:58;;;;;;;1.57;1.47;;;;;4.30;96284.00;;;;5053989;28;20228;-61
2023/04/05 08:38:26;;;;;;;1.27;1.27;;;;;4.40;96291.00;;;;5052971;28;20714;-61
2023/04/05 08:40:54;;;;;;;0.77;0.77;;;;;4.60;96289.00;;;;5053872;28;20208;-61
2023/04/05 08:43:28;;;;;;;1.10;1.10;;;;;4.50;96290.00;;;;5053420;28;20194;-62
2023/04/05 08:45:59;;;;;;;0.60;0.60;;;;;4.70;96291.00;;;;5053457;28;20192;-61
2023/04/05 08:48:27;;;;;;;1.07;1.07;;;;;5.00;96290.00;;;;5052860;28;20223;-61
2023/04/05 08:50:55;;;;;;;1.50;1.50;;;;;5.00;96293.00;;;;5053732;28;20204;-63
2023/04/05 08:53:23;;;;;;;1.63;1.47;;;;;5.10;96285.00;;;;5051594;28;20231;-62
2023/04/05 08:55:56;;;;;;;1.00;1.00;;;;;5.10;96293.00;;;;5053671;28;20660;-61
2023/04/05 08:58:25;;;;;;;1.43;1.43;;;;;5.30;96293.00;;;;5051689;28;20731;-61
2023/04/05 09:00:54;;;;;;;3.13;1.73;;;;;5.20;96287.00;;;;5053500;28;20193;-62
2023/04/05 09:03:25;;;;;;;1.50;1.40;;;;;5.40;96291.00;;;;5053068;28;20276;-61
2023/04/05 09:05:53;;;;;;;1.00;1.00;;;;;5.40;96289.00;;;;5053462;28;20202;-61
2023/04/05 09:08:21;;;;;;;0.80;0.80;;;;;5.60;96296.00;;;;5052823;28;20216;-61
2023/04/05 09:10:51;;;;;;;1.10;1.10;;;;;5.40;96292.00;;;;5051865;28;20196;-61
2023/04/05 09:13:19;;;;;;;0.70;0.70;;;;;5.20;96293.00;;;;5048633;28;20209;-61
2023/04/05 09:15:47;;;;;;;1.53;1.43;;;;;5.30;96295.00;;;;5052853;28;20241;-61
2023/04/05 09:18:14;;;;;;;0.80;0.80;;;;;5.60;96303.00;;;;5052821;28;20220;-62
2023/04/05 09:20:42;;;;;;;1.27;1.13;;;;;5.30;96296.00;;;;5052482;28;20198;-61
2023/04/05 09:23:09;;;;;;;1.23;1.23;;;;;5.50;96299.00;;;;5052606;28;20197;-61
2023/04/05 09:25:38;;;;;;;1.13;1.13;;;;;5.40;96295.00;;;;5052017;28;20205;-61
2023/04/05 09:28:08;;;;;;;1.07;1.07;;;;;5.60;96293.00;;;;5052283;28;20199;-62
2023/04/05 09:30:36;;;;;;;2.50;1.50;;;;;5.70;96296.00;;;;5053173;28;20196;-62
2023/04/05 09:33:07;;;;;;;1.27;1.17;;;;;5.80;96294.00;;;;5052170;28;20199;-61
2023/04/05 09:35:37;;;;;;;1.37;1.30;;;;;5.70;96289.00;;;;5052961;28;20203;-61
2023/04/05 09:38:05;;;;;;;1.17;1.13;;;;;5.90;96293.00;;;;5051363;28;20200;-62
2023/04/05 09:40:44;;;;;;;1.70;1.60;;;;;6.20;96294.00;;;;5050414;28;20202;-61
2023/04/05 09:43:15;;;;;;;1.10;1.10;;;;;5.90;96301.00;;;;5052111;28;20199;-61
2023/04/05 09:45:44;;;;;;;1.03;1.03;;;;;6.10;96303.00;;;;5052977;28;20188;-62
2023/04/05 09:48:12;;;;;;;3.30;3.10;;;;;6.10;96288.00;;;;5051987;28;20289;-62
2023/04/05 09:50:40;;;;;;;1.27;1.27;;;;;6.10;96292.00;;;;5052620;28;20717;-62
2023/04/05 09:53:09;;;;;;;1.37;1.37;;;;;6.20;96287.00;;;;5050472;28;20199;-62
2023/04/05 09:55:39;;;;;;;1.20;1.20;;;;;6.50;96290.00;;;;5052408;28;20690;-62
2023/04/05 09:58:11;;;;;;;0.80;0.80;;;;;6.60;96295.00;;;;5051576;28;20277;-62
2023/04/05 10:00:51;;;;;;;1.50;1.40;;;;;6.50;96282.00;;;;5052346;28;20643;-62
2023/04/05 10:03:19;;;;;;;1.23;1.23;;;;;6.80;96283.00;;;;5071042;28;20223;-62
2023/04/05 10:05:54;;;;;;;1.00;1.00;;;;;7.10;96291.00;;;;5071793;28;20197;-62
2023/04/05 10:08:23;;;;;;;1.27;1.17;;;;;7.30;96285.00;;;;5052448;28;20216;-62
2023/04/05 10:10:53;;;;;;;1.37;1.37;;;;;7.40;96280.00;;;;5051889;28;20299;-60
2023/04/05 10:13:22;;;;;;;2.03;1.70;;;;;7.40;96280.00;;;;5051910;28;20283;-62
2023/04/05 10:15:53;;;;;;;0.80;0.80;;;;;7.30;96278.00;;;;5051966;28;20251;-62
2023/04/05 10:18:25;;;;;;;1.83;1.73;;;;;7.60;96271.00;;;;5058449;28;20219;-61
2023/04/05 10:20:56;;;;;;;1.23;1.23;;;;;7.60;96271.00;;;;5068148;28;20198;-60
2023/04/05 10:23:28;;;;;;;1.10;1.10;;;;;7.10;96254.00;;;;5053653;28;20211;-61
2023/04/05 10:26:07;;;;;;;1.13;1.13;;;;;7.30;96258.00;;;;5051988;28;20258;-62
2023/04/05 10:28:36;;;;;;;1.73;1.60;;;;;7.60;96255.00;;;;5051300;28;20744;-60
2023/04/05 10:31:11;;;;;;;1.30;1.23;;;;;7.70;96249.00;;;;5051991;28;20274;-60
2023/04/05 10:33:44;;;;;;;0.83;0.83;;;;;8.00;96254.00;;;;5050445;28;20192;-59
2023/04/05 10:36:22;;;;;;;1.10;1.10;;;;;8.00;96251.00;;;;5051082;28;20200;-59
2023/04/05 10:39:00;;;;;;;1.83;1.73;;;;;8.00;96250.00;;;;5051279;28;20227;-62
2023/04/05 10:41:30;;;;;;;1.40;1.37;;;;;8.10;96250.00;;;;5051543;28;20191;-62
2023/04/05 10:43:59;;;;;;;1.53;1.43;;;;;8.40;96254.00;;;;5050737;28;20246;-62
2023/04/05 10:46:28;;;;;;;1.00;1.00;;;;;8.60;96243.00;;;;5051366;28;20230;-62
2023/04/05 10:49:10;;;;;;;1.07;1.07;;;;;8.60;96244.00;;;;5051086;28;20230;-62
2023/04/05 10:51:38;;;;;;;0.93;0.93;;;;;8.10;96255.00;;;;5051113;28;20203;-62
2023/04/05 10:54:09;;;;;;;0.93;0.93;;;;;7.80;96248.00;;;;5050919;28;20281;-62
2023/04/05 10:56:38;;;;;;;1.00;1.00;;;;;8.30;96238.00;;;;5051027;28;20199;-62
2023/04/05 10:59:07;;;;;;;1.00;1.00;;;;;8.70;96234.00;;;;5050352;28;20220;-62
2023/04/05 11:01:37;;;;;;;1.37;1.37;;;;;9.00;96237.00;;;;5051262;28;20196;-61
2023/04/05 11:04:12;;;;;;;1.10;1.10;;;;;9.30;96244.00;;;;5050575;28;20263;-62
2023/04/05 11:06:40;;;;;;;1.00;1.00;;;;;9.70;96234.00;;;;5051237;28;20188;-62
2023/04/05 11:09:14;;;;;;;1.67;1.57;;;;;9.10;96232.00;;;;5050429;28;20631;-61
2023/04/05 11:11:42;;;;;;;2.50;1.17;;;;;9.70;96235.00;;;;5051196;28;20184;-62
2023/04/05 11:14:21;;;;;;;1.20;1.20;;;;;9.20;96234.00;;;;5050447;28;20243;-62
2023/04/05 11:16:54;;;;;;;0.87;0.87;;;;;9.30;96234.00;;;;5056444;28;20216;-62
2023/04/05 11:19:41;;;;;;;1.40;1.30;;;;;10.00;96230.00;;;;5050283;28;20222;-62
2023/04/05 11:22:11;;;;;;;0.97;0.97;;;;;10.20;96221.00;;;;5057653;28;20539;-62
2023/04/05 11:24:51;;;;;;;1.60;1.50;;;;;10.40;96221.00;;;;5064037;28;20191;-62
2023/04/05 11:27:25;;;;;;;1.17;1.17;;;;;10.30;96223.00;;;;5050964;28;20647;-61
2023/04/05 11:29:53;;;;;;;1.40;1.33;;;;;10.30;96228.00;;;;5050181;28;20314;-62
2023/04/05 11:32:21;;;;;;;2.17;1.27;;;;;10.60;96219.00;;;;5051138;28;20262;-62
2023/04/05 11:35:00;;;;;;;1.17;1.17;;;;;10.70;96219.00;;;;5048484;28;20274;-62
2023/04/05 11:38:05;;;;;;;1.30;1.23;;;;;10.80;96211.00;;;;5051056;28;20188;-62
2023/04/05 11:40:34;;;;;;;1.70;1.60;;;;;11.00;96211.00;;;;5050623;28;20188;-62
2023/04/05 11:43:04;;;;;;;1.10;1.10;;;;;10.90;96201.00;;;;5052257;28;20765;-62
2023/04/05 11:45:32;;;;;;;1.43;1.33;;;;;11.30;96202.00;;;;5054050;28;20196;-62
2023/04/05 11:48:01;;;;;;;1.47;1.40;;;;;11.30;96201.00;;;;5054435;28;20192;-62
2023/04/05 11:50:29;;;;;;;0.80;0.80;;;;;11.30;96198.00;;;;5054345;28;20250;-62
2023/04/05 11:53:11;;;;;;;1.27;1.27;;;;;11.70;96195.00;;;;5054445;28;20204;-61
2023/04/05 11:55:40;;;;;;;1.00;1.00;;;;;11.50;96196.00;;;;5054593;28;20238;-62
2023/04/05 11:58:17;;;;;;;1.20;1.20;;;;;11.30;96192.00;;;;5054287;28;20188;-62
2023/04/05 12:00:46;;;;;;;0.90;0.90;;;;;11.80;96189.00;;;;5054296;28;20192;-64
2023/04/05 12:03:14;;;;;;;1.30;1.20;;;;;11.60;96195.00;;;;5053801;28;20199;-62
2023/04/05 12:05:49;;;;;;;1.93;1.77;;;;;11.50;96196.00;;;;5070492;28;20191;-61
2023/04/05 12:08:18;;;;;;;0.97;0.93;;;;;11.20;96185.00;;;;5073706;28;20222;-62
2023/04/05 12:10:53;;;;;;;1.47;1.10;;;;;11.60;96187.00;;;;5074433;28;20264;-62
2023/04/05 12:13:29;;;;;;;2.07;1.97;;;;;11.90;96187.00;;;;5073669;28;20199;-61
2023/04/05 12:15:59;;;;;;;9.40;2.00;;;;;11.80;96191.00;;;;5074418;28;20210;-63
2023/04/05 12:18:27;;;;;;;1.00;1.00;;;;;11.70;96188.00;;;;5053551;28;20282;-62
2023/04/05 12:20:55;;;;;;;1.67;1.57;;;;;11.40;96188.00;;;;5054431;28;20200;-62
2023/04/05 12:23:25;;;;;;;0.80;0.80;;;;;11.30;96188.00;;;;5053590;28;20239;-61
2023/04/05 12:25:55;;;;;;;1.10;1.10;;;;;11.70;96184.00;;;;5054529;28;20202;-62
2023/04/05 12:28:23;;;;;;;1.50;1.40;;;;;11.80;96181.00;;;;5053614;28;20220;-61
2023/04/05 12:30:50;;;;;;;1.40;1.30;;;;;11.80;96181.00;;;;5053972;28;20256;-62